Time;durP1;ratioP1;P1;durP2;ratioP2;P2;SDS_P1;SDS_P2;PMS_P1;PMS_P2;Temp;Humidity;BMP_temperature;BMP_pressure;BME280_temperature;BME280_humidity;BME280_pressure;Samples;Min_cycle;Max_cycle;Signal;HPM_P1;HPM_P2
2021/06/18 00:02:07;;;;;;;13.13;5.57;;;563.70;2432.00;;;;;;4884003;29;20048;-71
2021/06/18 00:04:33;;;;;;;9.68;6.47;;;563.40;2432.00;;;;;;4875868;29;20061;-72
2021/06/18 00:07:05;;;;;;;8.88;5.40;;;563.40;2432.00;;;;;;4875179;29;20064;-72
2021/06/18 00:09:34;;;;;;;7.53;5.47;;;563.40;2432.00;;;;;;4876045;29;20386;-72
2021/06/18 00:11:59;;;;;;;7.90;4.90;;;563.30;2432.00;;;;;;4880262;29;20033;-72
2021/06/18 00:14:25;;;;;;;8.75;5.72;;;563.20;2432.00;;;;;;4880488;29;20390;-72
2021/06/18 00:16:54;;;;;;;7.55;5.30;;;538.40;2406.40;;;;;;4881573;29;20032;-71
2021/06/18 00:19:20;;;;;;;7.72;5.45;;;538.40;2406.40;;;;;;4866202;29;20422;-72
2021/06/18 00:21:46;;;;;;;12.38;6.10;;;538.30;2406.40;;;;;;4880137;29;20044;-72
2021/06/18 00:24:18;;;;;;;12.25;6.93;;;538.20;2406.40;;;;;;4867676;29;20173;-72
2021/06/18 00:27:01;;;;;;;9.88;6.53;;;538.10;2406.40;;;;;;4870269;29;20029;-72
2021/06/18 00:29:46;;;;;;;7.68;5.70;;;538.10;2406.40;;;;;;4875430;29;20048;-72
2021/06/18 00:32:18;;;;;;;9.23;6.55;;;538.10;2406.40;;;;;;4888829;29;20032;-72
2021/06/18 00:35:03;;;;;;;14.98;7.57;;;538.20;2406.40;;;;;;4878170;29;20025;-72
2021/06/18 00:37:28;;;;;;;9.10;7.25;;;538.20;2406.40;;;;;;4863155;29;20090;-72
2021/06/18 00:39:57;;;;;;;10.15;6.20;;;538.10;2406.40;;;;;;4876751;29;20475;-72
2021/06/18 00:42:29;;;;;;;8.25;6.30;;;538.20;2406.40;;;;;;4872065;29;20077;-72
2021/06/18 00:44:58;;;;;;;7.28;6.32;;;538.20;2406.40;;;;;;4879232;29;20021;-72
2021/06/18 00:47:48;;;;;;;8.93;5.88;;;538.20;2406.40;;;;;;4879405;29;20386;-72
2021/06/18 00:50:14;;;;;;;10.13;6.40;;;538.20;2406.40;;;;;;4879804;29;20021;-72
2021/06/18 00:52:40;;;;;;;9.48;7.32;;;538.30;2406.40;;;;;;4868121;29;20029;-72
2021/06/18 00:55:31;;;;;;;12.88;5.97;;;538.30;2406.40;;;;;;4879082;29;20036;-72
2021/06/18 00:58:15;;;;;;;8.60;6.80;;;538.30;2406.40;;;;;;4867915;29;20033;-72
2021/06/18 01:00:42;;;;;;;11.93;6.22;;;538.30;2406.40;;;;;;4878321;29;20045;-72
2021/06/18 01:03:12;;;;;;;9.27;7.13;;;538.30;2406.40;;;;;;4879405;29;20133;-72
2021/06/18 01:05:56;;;;;;;9.55;6.18;;;538.30;2406.40;;;;;;4872937;29;20029;-72
2021/06/18 01:08:46;;;;;;;10.85;7.55;;;538.30;2406.40;;;;;;4875495;29;20088;-72
2021/06/18 01:11:43;;;;;;;9.13;6.72;;;538.30;2406.40;;;;;;4879556;29;20029;-72
2021/06/18 01:14:30;;;;;;;7.95;6.55;;;538.30;2406.40;;;;;;4873790;29;20049;-72
2021/06/18 01:17:02;;;;;;;9.30;6.00;;;538.30;2406.40;;;;;;4868966;29;20120;-72
2021/06/18 01:19:28;;;;;;;8.43;7.53;;;538.30;2406.40;;;;;;4875682;29;20057;-71
2021/06/18 01:22:15;;;;;;;10.13;6.07;;;538.30;2406.40;;;;;;4876392;29;20075;-72
2021/06/18 01:25:05;;;;;;;8.40;6.32;;;538.20;2406.40;;;;;;4880265;29;20040;-72
2021/06/18 01:31:16;;;;;;;8.32;6.35;;;538.20;2406.40;;;;;;4878160;29;20140;-72
2021/06/18 01:34:13;;;;;;;9.52;6.35;;;538.10;2406.40;;;;;;4886448;29;20052;-72
2021/06/18 01:36:58;;;;;;;10.38;7.32;;;538.20;2406.40;;;;;;4869659;29;20507;-71
2021/06/18 01:39:24;;;;;;;8.88;6.18;;;538.00;2406.40;;;;;;4874732;29;20130;-72
2021/06/18 01:42:14;;;;;;;9.65;7.43;;;538.10;2406.40;;;;;;4889037;29;20021;-71
2021/06/18 01:44:55;;;;;;;11.90;7.97;;;538.10;2406.40;;;;;;4878402;29;20056;-72
2021/06/18 01:47:39;;;;;;;16.10;8.07;;;537.80;2406.40;;;;;;4878343;29;20060;-72
2021/06/18 01:50:28;;;;;;;10.40;6.43;;;537.80;2406.40;;;;;;4877098;29;20025;-71
2021/06/18 01:53:04;;;;;;;8.52;7.00;;;537.80;2406.40;;;;;;4879530;29;20498;-72
2021/06/18 01:55:48;;;;;;;8.95;6.90;;;537.80;2406.40;;;;;;4894933;29;20028;-71
2021/06/18 01:58:26;;;;;;;9.35;6.63;;;537.80;2406.40;;;;;;4878066;29;20036;-71
2021/06/18 02:00:52;;;;;;;10.38;7.28;;;537.90;2406.40;;;;;;4877614;29;20818;-71
2021/06/18 02:03:23;;;;;;;9.73;7.10;;;537.90;2406.40;;;;;;4876982;29;20025;-71
2021/06/18 02:06:04;;;;;;;11.27;7.10;;;537.90;2406.40;;;;;;4875352;29;20040;-71
2021/06/18 02:08:37;;;;;;;10.32;7.53;;;537.80;2406.40;;;;;;4888124;29;20033;-71
2021/06/18 02:11:31;;;;;;;11.07;7.38;;;537.80;2406.40;;;;;;4879652;29;20033;-71
2021/06/18 02:14:09;;;;;;;10.45;7.28;;;537.80;2406.40;;;;;;4872975;29;20025;-72
2021/06/18 02:17:17;;;;;;;11.05;6.68;;;537.80;2406.40;;;;;;4881625;29;20028;-72
2021/06/18 02:20:01;;;;;;;10.02;7.32;;;537.60;2406.40;;;;;;4890810;29;20017;-72
2021/06/18 02:22:45;;;;;;;9.27;6.60;;;537.60;2406.40;;;;;;4891034;29;20028;-72
2021/06/18 02:25:12;;;;;;;11.80;7.28;;;512.90;2380.80;;;;;;4875284;29;20025;-71
2021/06/18 02:28:01;;;;;;;8.68;7.53;;;537.60;2406.40;;;;;;4895469;29;20674;-72
2021/06/18 02:30:36;;;;;;;8.85;6.82;;;512.90;2380.80;;;;;;4877970;29;20057;-72
2021/06/18 02:33:20;;;;;;;12.25;7.07;;;512.80;2380.80;;;;;;4890162;29;20040;-73
2021/06/18 02:35:55;;;;;;;9.73;6.20;;;512.80;2380.80;;;;;;4895101;29;20035;-71
2021/06/18 02:38:21;;;;;;;9.93;6.60;;;512.80;2380.80;;;;;;4878581;29;20029;-71
2021/06/18 02:40:47;;;;;;;10.60;6.72;;;512.80;2380.80;;;;;;4881327;29;20033;-72
2021/06/18 02:43:19;;;;;;;8.38;6.57;;;512.80;2380.80;;;;;;4901127;29;20048;-71
2021/06/18 02:45:45;;;;;;;10.13;6.57;;;512.90;2380.80;;;;;;4877094;29;20044;-71
2021/06/18 02:48:46;;;;;;;12.95;7.00;;;512.80;2380.80;;;;;;4888800;29;20076;-71
2021/06/18 02:51:35;;;;;;;10.85;6.95;;;512.40;2380.80;;;;;;4869848;29;20025;-71
2021/06/18 02:54:15;;;;;;;10.85;7.20;;;512.50;2380.80;;;;;;4880908;29;20116;-72
2021/06/18 02:57:26;;;;;;;14.00;7.45;;;512.60;2380.80;;;;;;4893716;29;20052;-72
2021/06/18 03:00:04;;;;;;;9.93;6.30;;;512.60;2380.80;;;;;;4881752;29;20121;-72
2021/06/18 03:02:57;;;;;;;10.63;7.82;;;512.80;2380.80;;;;;;4879105;29;20037;-72
2021/06/18 03:05:28;;;;;;;11.73;7.43;;;512.80;2380.80;;;;;;4875325;29;20036;-72
2021/06/18 03:08:08;;;;;;;8.32;6.88;;;512.80;2380.80;;;;;;4870890;29;20029;-73
2021/06/18 03:10:56;;;;;;;10.23;7.07;;;512.80;2380.80;;;;;;4891810;29;20053;-72
2021/06/18 03:13:48;;;;;;;11.20;6.68;;;512.80;2380.80;;;;;;4899924;29;20132;-72
2021/06/18 03:16:18;;;;;;;10.57;7.68;;;512.80;2380.80;;;;;;4869869;29;20502;-72
2021/06/18 03:19:09;;;;;;;12.10;7.85;;;512.80;2380.80;;;;;;4881283;29;20044;-72
2021/06/18 03:21:51;;;;;;;12.43;7.47;;;512.80;2380.80;;;;;;4875611;29;20033;-72
2021/06/18 03:24:30;;;;;;;13.57;7.20;;;512.90;2380.80;;;;;;4868619;29;20050;-72
2021/06/18 03:26:57;;;;;;;10.20;7.25;;;512.90;2380.80;;;;;;4872741;29;20117;-72
2021/06/18 03:32:17;;;;;;;11.80;7.85;;;512.90;2380.80;;;;;;4874941;29;20036;-73
2021/06/18 03:34:49;;;;;;;9.95;8.18;;;537.60;2406.40;;;;;;4876603;29;20156;-73
2021/06/18 03:37:21;;;;;;;12.55;8.13;;;537.70;2406.40;;;;;;4874333;29;20073;-73
2021/06/18 03:40:03;;;;;;;12.20;8.23;;;537.80;2406.40;;;;;;4879948;29;20033;-72
2021/06/18 03:42:39;;;;;;;13.23;7.68;;;537.80;2406.40;;;;;;4881823;29;20451;-72
2021/06/18 03:45:22;;;;;;;11.67;7.50;;;537.80;2406.40;;;;;;4914258;29;20482;-72
2021/06/18 03:47:51;;;;;;;14.35;7.63;;;537.90;2406.40;;;;;;4902644;29;20032;-72
2021/06/18 03:50:29;;;;;;;13.02;8.68;;;537.90;2406.40;;;;;;4899338;29;20033;-72
2021/06/18 03:53:14;;;;;;;14.10;8.10;;;537.80;2406.40;;;;;;4891883;29;20077;-72
2021/06/18 03:55:40;;;;;;;10.98;7.60;;;537.80;2406.40;;;;;;4879911;29;20029;-72
2021/06/18 03:58:12;;;;;;;8.95;6.93;;;537.70;2406.40;;;;;;4873785;29;20029;-72
2021/06/18 04:00:42;;;;;;;11.38;7.18;;;537.70;2406.40;;;;;;4879407;29;20065;-72
2021/06/18 04:03:15;;;;;;;11.77;6.50;;;537.70;2406.40;;;;;;4884623;29;20502;-71
2021/06/18 04:05:43;;;;;;;10.13;7.25;;;537.60;2406.40;;;;;;4873782;29;20040;-71
2021/06/18 04:08:14;;;;;;;10.07;7.47;;;537.60;2406.40;;;;;;4876569;29;20057;-71
2021/06/18 04:10:40;;;;;;;9.55;7.82;;;512.90;2380.80;;;;;;4873229;29;20033;-71
2021/06/18 04:13:07;;;;;;;11.93;6.80;;;512.90;2380.80;;;;;;4878822;29;20068;-71
2021/06/18 04:15:33;;;;;;;14.52;8.07;;;537.70;2406.40;;;;;;4878191;29;20029;-71
2021/06/18 04:18:04;;;;;;;11.43;6.63;;;537.60;2406.40;;;;;;4877117;29;20157;-71
2021/06/18 04:20:55;;;;;;;9.75;6.88;;;537.70;2406.40;;;;;;4879730;29;20028;-71
2021/06/18 04:23:32;;;;;;;7.75;6.40;;;537.80;2406.40;;;;;;4866029;29;20022;-71
2021/06/18 04:26:04;;;;;;;14.20;6.80;;;537.60;2406.40;;;;;;4878657;29;20029;-71
2021/06/18 04:28:48;;;;;;;9.20;6.55;;;537.60;2406.40;;;;;;4875335;29;20064;-70
2021/06/18 04:31:26;;;;;;;11.35;5.88;;;537.80;2406.40;;;;;;4870883;29;20109;-71
2021/06/18 04:33:55;;;;;;;8.95;7.07;;;537.90;2406.40;;;;;;4874718;29;20049;-71
2021/06/18 04:36:20;;;;;;;9.32;6.30;;;537.80;2406.40;;;;;;4877462;29;20029;-71
2021/06/18 04:38:46;;;;;;;9.65;6.35;;;538.10;2406.40;;;;;;4876316;29;20044;-71
2021/06/18 04:41:27;;;;;;;8.32;6.60;;;538.00;2406.40;;;;;;4871421;29;20029;-71
2021/06/18 04:43:53;;;;;;;9.77;6.18;;;538.10;2406.40;;;;;;4894115;29;20029;-72
2021/06/18 04:49:03;;;;;;;9.65;6.97;;;538.40;2406.40;;;;;;4878015;29;20161;-71
2021/06/18 04:51:29;;;;;;;9.07;6.43;;;538.40;2406.40;;;;;;4873474;29;20152;-71
2021/06/18 04:54:04;;;;;;;7.45;6.05;;;563.20;2432.00;;;;;;4878579;29;20030;-72
2021/06/18 04:59:20;;;;;;;15.05;7.80;;;563.50;2432.00;;;;;;4870812;29;20045;-72
2021/06/18 05:01:52;;;;;;;8.68;6.47;;;563.40;2432.00;;;;;;4874207;29;20045;-71
2021/06/18 05:04:31;;;;;;;10.60;7.00;;;563.40;2432.00;;;;;;4875268;29;20029;-71
2021/06/18 05:07:21;;;;;;;9.85;6.88;;;563.50;2432.00;;;;;;4873110;29;20574;-71
2021/06/18 05:09:50;;;;;;;14.15;8.20;;;563.70;2432.00;;;;;;4871231;29;20044;-71
2021/06/18 05:12:31;;;;;;;13.30;7.28;;;563.90;2432.00;;;;;;4873545;29;20025;-71
2021/06/18 05:15:00;;;;;;;9.80;7.55;;;563.70;2432.00;;;;;;4872979;29;20518;-71
2021/06/18 05:17:32;;;;;;;8.13;6.85;;;563.50;2432.00;;;;;;4871665;29;20033;-71
2021/06/18 05:20:14;;;;;;;13.88;8.75;;;563.50;2432.00;;;;;;4875806;29;20037;-71
2021/06/18 05:22:43;;;;;;;15.23;7.97;;;563.30;2432.00;;;;;;4873959;29;20035;-71
2021/06/18 05:25:27;;;;;;;15.82;9.60;;;563.30;2432.00;;;;;;4872451;29;20512;-70
2021/06/18 05:27:53;;;;;;;13.30;9.65;;;563.40;2432.00;;;;;;4873710;29;20032;-71
2021/06/18 05:30:34;;;;;;;12.68;8.32;;;563.30;2432.00;;;;;;4867484;29;20113;-71
2021/06/18 05:33:15;;;;;;;15.90;8.93;;;563.30;2432.00;;;;;;4872958;29;20037;-70
2021/06/18 05:35:56;;;;;;;12.18;9.55;;;563.60;2432.00;;;;;;4870619;29;20109;-71
2021/06/18 05:38:37;;;;;;;10.27;7.68;;;563.50;2432.00;;;;;;4872881;29;20035;-71
2021/06/18 05:41:22;;;;;;;12.65;8.25;;;563.40;2432.00;;;;;;4870553;29;20487;-71
2021/06/18 05:43:50;;;;;;;12.32;8.75;;;563.80;2432.00;;;;;;4866294;29;20132;-72
2021/06/18 05:46:19;;;;;;;13.80;9.48;;;588.80;2432.00;;;;;;4872640;29;20025;-70
2021/06/18 05:48:56;;;;;;;10.25;7.55;;;589.40;2432.00;;;;;;4870906;29;20033;-72
2021/06/18 05:51:41;;;;;;;10.18;7.75;;;614.60;2432.00;;;;;;4868145;29;20119;-72
2021/06/18 05:54:07;;;;;;;11.30;7.68;;;615.30;2432.00;;;;;;4885896;29;20132;-72
2021/06/18 05:56:45;;;;;;;10.90;7.82;;;640.50;2432.00;;;;;;4862114;29;20419;-72
2021/06/18 05:59:10;;;;;;;9.18;7.47;;;665.70;2406.40;;;;;;4863452;29;20070;-72
2021/06/18 06:01:36;;;;;;;9.50;6.13;;;666.30;2355.20;;;;;;4874609;29;20033;-72
2021/06/18 06:04:21;;;;;;;10.43;6.32;;;691.70;2278.40;;;;;;4863528;29;20032;-71
2021/06/18 06:06:46;;;;;;;6.97;5.70;;;691.50;2278.40;;;;;;4876645;29;20486;-72
2021/06/18 06:09:12;;;;;;;7.50;5.88;;;692.00;2227.20;;;;;;4876041;29;20033;-72
2021/06/18 06:11:38;;;;;;;10.23;6.28;;;716.90;2201.60;;;;;;4871695;29;20024;-72
2021/06/18 06:14:07;;;;;;;7.13;5.65;;;716.90;2201.60;;;;;;4873620;29;20157;-72
2021/06/18 06:16:34;;;;;;;7.45;5.63;;;717.40;2124.80;;;;;;4865883;29;20056;-72
2021/06/18 06:19:13;;;;;;;7.97;5.57;;;742.40;2099.20;;;;;;4870731;29;20033;-72
2021/06/18 06:22:00;;;;;;;6.50;5.18;;;742.50;2099.20;;;;;;4868952;29;20037;-72
2021/06/18 06:24:26;;;;;;;7.47;5.20;;;742.90;2073.60;;;;;;4872708;29;20025;-72
2021/06/18 06:26:52;;;;;;;8.48;5.82;;;742.70;2073.60;;;;;;4872603;29;20033;-73
2021/06/18 06:29:29;;;;;;;7.22;5.35;;;742.40;2124.80;;;;;;4874927;29;20033;-73
2021/06/18 06:32:12;;;;;;;8.90;5.80;;;742.90;2073.60;;;;;;4885964;29;20079;-73
2021/06/18 06:34:57;;;;;;;10.77;5.10;;;742.40;2099.20;;;;;;4883487;29;20084;-73
2021/06/18 06:37:32;;;;;;;8.18;5.78;;;742.40;2124.80;;;;;;4872789;29;20120;-73
2021/06/18 06:39:58;;;;;;;8.95;5.68;;;743.10;2048.00;;;;;;4861269;29;20044;-73
2021/06/18 06:42:23;;;;;;;9.90;5.80;;;768.00;2022.40;;;;;;4868026;29;20029;-72
2021/06/18 06:44:52;;;;;;;7.13;5.22;;;768.20;1996.80;;;;;;4867658;29;20108;-73
2021/06/18 06:47:21;;;;;;;7.82;4.80;;;768.20;1971.20;;;;;;4861584;29;20044;-73
2021/06/18 06:49:47;;;;;;;8.38;5.50;;;768.50;1945.60;;;;;;4869561;29;20431;-73
2021/06/18 06:52:13;;;;;;;6.72;4.97;;;768.80;1945.60;;;;;;4862120;29;20033;-72
2021/06/18 06:54:41;;;;;;;5.95;4.82;;;793.80;1920.00;;;;;;4861904;29;20029;-72
2021/06/18 06:57:16;;;;;;;5.38;4.68;;;794.00;1920.00;;;;;;4864785;29;20486;-72
2021/06/18 06:59:42;;;;;;;6.55;4.97;;;768.90;1945.60;;;;;;4873475;29;20061;-73
2021/06/18 07:02:16;;;;;;;7.43;4.78;;;794.20;1920.00;;;;;;4876017;29;20084;-73
2021/06/18 07:04:57;;;;;;;5.17;4.57;;;794.30;1894.40;;;;;;4873038;29;20025;-73
2021/06/18 07:07:44;;;;;;;13.45;4.75;;;819.20;1843.20;;;;;;4874044;29;20052;-73
2021/06/18 07:10:13;;;;;;;8.27;5.55;;;819.20;1868.80;;;;;;4868078;29;20452;-73
2021/06/18 07:12:45;;;;;;;6.13;4.70;;;794.50;1843.20;;;;;;4864877;29;20100;-73
2021/06/18 07:15:14;;;;;;;7.00;5.13;;;794.30;1843.20;;;;;;4863444;29;20419;-73
2021/06/18 07:17:41;;;;;;;5.68;4.72;;;819.40;1817.60;;;;;;4866891;29;20029;-73
2021/06/18 07:20:16;;;;;;;5.57;4.97;;;794.30;1843.20;;;;;;4867281;29;20025;-72
2021/06/18 07:22:45;;;;;;;8.77;5.13;;;794.00;1843.20;;;;;;4871609;29;20025;-73
2021/06/18 07:25:16;;;;;;;6.03;4.95;;;768.80;1920.00;;;;;;4861328;29;20082;-73
2021/06/18 07:27:45;;;;;;;6.43;5.07;;;768.90;1920.00;;;;;;4865368;29;20510;-73
2021/06/18 07:30:26;;;;;;;8.40;5.18;;;768.80;1920.00;;;;;;4860677;29;20037;-74
2021/06/18 07:32:58;;;;;;;6.50;5.47;;;768.90;1894.40;;;;;;4861909;29;20379;-73
2021/06/18 07:35:28;;;;;;;8.23;5.70;;;768.80;1894.40;;;;;;4868127;29;20032;-73
2021/06/18 07:37:57;;;;;;;6.57;5.53;;;793.60;1920.00;;;;;;4870685;29;21447;-73
2021/06/18 07:40:26;;;;;;;6.95;6.25;;;793.80;1894.40;;;;;;4866191;29;20036;-73
2021/06/18 07:42:58;;;;;;;7.20;5.72;;;793.80;1894.40;;;;;;4869833;29;20028;-73
2021/06/18 07:45:28;;;;;;;9.32;5.32;;;794.10;1868.80;;;;;;4873658;29;20041;-73
2021/06/18 07:48:00;;;;;;;9.32;6.15;;;794.30;1868.80;;;;;;4875210;29;20041;-73
2021/06/18 07:50:41;;;;;;;5.47;4.15;;;819.30;1843.20;;;;;;4869922;29;20021;-73
2021/06/18 07:53:10;;;;;;;5.28;4.40;;;820.00;1792.00;;;;;;4874845;29;20498;-74
2021/06/18 07:55:53;;;;;;;5.97;5.18;;;819.80;1792.00;;;;;;4873342;29;20036;-73
2021/06/18 07:58:19;;;;;;;5.72;4.70;;;845.10;1766.40;;;;;;4875700;29;20380;-73
2021/06/18 08:00:50;;;;;;;7.70;4.53;;;870.40;1689.60;;;;;;4873412;29;20053;-73
2021/06/18 08:03:19;;;;;;;7.85;5.00;;;845.00;1740.80;;;;;;4875048;29;20104;-73
2021/06/18 08:05:45;;;;;;;5.20;4.35;;;845.60;1689.60;;;;;;4875652;29;20029;-73
2021/06/18 08:08:12;;;;;;;6.38;4.75;;;870.90;1612.80;;;;;;4871982;29;20028;-74
2021/06/18 08:10:53;;;;;;;8.25;4.85;;;896.30;1561.60;;;;;;4875146;29;20036;-73
2021/06/18 08:13:34;;;;;;;5.72;4.53;;;896.90;1510.40;;;;;;4874782;29;20034;-73
2021/06/18 08:16:13;;;;;;;6.57;4.68;;;896.90;1484.80;;;;;;4873602;29;20534;-73
2021/06/18 08:18:57;;;;;;;6.18;4.53;;;921.70;1484.80;;;;;;4872552;29;20033;-74
2021/06/18 08:21:34;;;;;;;8.27;5.22;;;921.60;1484.80;;;;;;4874242;29;20081;-73
2021/06/18 08:24:15;;;;;;;10.60;5.65;;;896.30;1484.80;;;;;;4868281;29;20028;-73
2021/06/18 08:26:44;;;;;;;5.68;4.10;;;896.50;1484.80;;;;;;4876404;29;20375;-73
2021/06/18 08:29:09;;;;;;;6.05;4.20;;;896.50;1510.40;;;;;;4876073;29;20108;-73
2021/06/18 08:31:44;;;;;;;6.22;4.07;;;896.50;1459.20;;;;;;4876810;29;20526;-73
2021/06/18 08:34:13;;;;;;;5.25;4.18;;;896.30;1484.80;;;;;;4871905;29;20439;-74
2021/06/18 08:36:39;;;;;;;6.55;5.20;;;896.20;1484.80;;;;;;4879228;29;20033;-73
2021/06/18 08:39:06;;;;;;;7.55;4.43;;;896.70;1459.20;;;;;;4885628;29;20037;-73
2021/06/18 08:41:50;;;;;;;6.97;4.88;;;896.80;1433.60;;;;;;4879105;29;20498;-73
2021/06/18 08:44:35;;;;;;;5.68;4.35;;;922.10;1408.00;;;;;;4879500;29;20447;-74
2021/06/18 08:47:13;;;;;;;7.43;4.80;;;947.20;1382.40;;;;;;4872930;29;20367;-73
2021/06/18 08:49:45;;;;;;;7.47;5.18;;;947.60;1356.80;;;;;;4873391;29;20021;-72
2021/06/18 08:52:16;;;;;;;5.85;4.65;;;947.80;1331.20;;;;;;4876475;29;20036;-72
2021/06/18 08:55:00;;;;;;;5.65;5.03;;;947.60;1356.80;;;;;;4874897;29;20510;-72
2021/06/18 08:57:26;;;;;;;7.97;5.78;;;896.80;1408.00;;;;;;4873568;29;20036;-72
2021/06/18 08:59:58;;;;;;;8.98;5.30;;;896.30;1433.60;;;;;;4870488;29;20049;-72
2021/06/18 09:02:40;;;;;;;6.45;4.80;;;896.50;1408.00;;;;;;4890698;29;20032;-72
2021/06/18 09:05:12;;;;;;;6.00;4.20;;;896.40;1408.00;;;;;;4892363;29;20667;-72
2021/06/18 09:08:09;;;;;;;5.88;4.22;;;922.10;1356.80;;;;;;4890371;29;20056;-72
2021/06/18 09:11:00;;;;;;;11.77;5.35;;;947.50;1331.20;;;;;;4873623;29;20033;-72
2021/06/18 09:13:34;;;;;;;6.50;5.35;;;947.30;1356.80;;;;;;4890391;29;20020;-72
2021/06/18 09:16:00;;;;;;;5.60;5.00;;;947.20;1356.80;;;;;;4891627;29;20124;-72
2021/06/18 09:18:59;;;;;;;6.70;4.82;;;922.20;1356.80;;;;;;4887128;29;20025;-72
2021/06/18 09:22:00;;;;;;;6.30;5.45;;;921.90;1382.40;;;;;;4891425;29;20386;-72
2021/06/18 09:24:30;;;;;;;11.73;9.18;;;947.20;1356.80;;;;;;4885972;29;20033;-72
2021/06/18 09:27:30;;;;;;;9.00;5.95;;;922.40;1356.80;;;;;;4892322;29;20052;-72
2021/06/18 09:30:21;;;;;;;10.63;7.95;;;947.30;1331.20;;;;;;4879863;29;20149;-72
2021/06/18 09:36:12;;;;;;;8.10;5.43;;;947.80;1280.00;;;;;;4892013;29;20045;-73
2021/06/18 09:39:22;;;;;;;11.57;5.40;;;972.90;1280.00;;;;;;4882823;29;20073;-75
2021/06/18 09:41:54;;;;;;;6.93;6.10;;;972.90;1280.00;;;;;;4887301;29;20036;-72
2021/06/18 09:47:44;;;;;;;9.05;5.40;;;947.70;1280.00;;;;;;4887858;29;20434;-72
2021/06/18 09:50:27;;;;;;;4.45;3.97;;;947.50;1254.40;;;;;;4893739;29;20084;-72
2021/06/18 09:53:18;;;;;;;5.40;4.07;;;947.30;1280.00;;;;;;4872516;29;20123;-72
2021/06/18 09:55:46;;;;;;;5.68;3.47;;;948.00;1203.20;;;;;;4892346;29;20400;-72
2021/06/18 09:58:34;;;;;;;7.65;4.57;;;973.10;1228.80;;;;;;4892780;29;20021;-72
2021/06/18 10:01:37;;;;;;;4.32;3.70;;;998.40;1203.20;;;;;;4371843;29;15278294;-72
2021/06/18 10:04:15;;;;;;;4.57;3.80;;;998.70;1177.60;;;;;;4893265;29;20032;-73
2021/06/18 10:06:57;;;;;;;6.18;4.80;;;973.30;1203.20;;;;;;4880941;29;20056;-73
2021/06/18 10:09:38;;;;;;;4.25;3.60;;;973.70;1203.20;;;;;;4895084;29;20088;-73
2021/06/18 10:12:22;;;;;;;8.25;4.35;;;973.40;1203.20;;;;;;4894536;29;20024;-73
2021/06/18 10:15:17;;;;;;;4.63;3.78;;;998.40;1177.60;;;;;;4895585;29;20021;-73
2021/06/18 10:18:11;;;;;;;5.28;3.50;;;973.30;1177.60;;;;;;4892595;29;20112;-74
2021/06/18 10:20:55;;;;;;;4.30;3.45;;;973.40;1126.40;;;;;;4888708;29;20083;-73
2021/06/18 10:23:46;;;;;;;6.55;3.85;;;998.80;1075.20;;;;;;4890657;29;20104;-72
2021/06/18 10:26:35;;;;;;;3.88;2.95;;;998.70;1075.20;;;;;;4889890;29;20037;-71
2021/06/18 10:29:08;;;;;;;7.35;3.42;;;998.70;1075.20;;;;;;4893252;29;20064;-72
2021/06/18 10:31:53;;;;;;;6.95;3.63;;;998.90;1075.20;;;;;;4888842;29;20796;-71
2021/06/18 10:34:19;;;;;;;4.57;3.63;;;999.10;1049.60;;;;;;4895263;29;20750;-71
2021/06/18 10:36:51;;;;;;;5.65;3.83;;;1024.60;998.40;;;;;;4893058;29;20104;-72
2021/06/18 10:39:58;;;;;;;7.07;3.10;;;1024.40;1024.00;;;;;;4892054;29;20106;-74
2021/06/18 10:42:30;;;;;;;5.47;4.55;;;1049.70;972.80;;;;;;4884436;29;20028;-74
2021/06/18 10:44:58;;;;;;;4.82;3.33;;;1024.70;972.80;;;;;;4887518;29;20020;-74
2021/06/18 10:47:31;;;;;;;5.10;3.47;;;1024.40;947.20;;;;;;4891190;29;20020;-74
2021/06/18 10:50:13;;;;;;;5.10;3.08;;;1024.40;947.20;;;;;;4887226;29;20107;-74
2021/06/18 10:52:45;;;;;;;5.60;3.20;;;998.90;1024.00;;;;;;4885669;29;20420;-74
2021/06/18 10:55:13;;;;;;;3.53;2.97;;;973.70;1024.00;;;;;;4885717;29;20020;-74
2021/06/18 10:58:03;;;;;;;7.80;4.50;;;998.60;1024.00;;;;;;4886036;29;20032;-74
2021/06/18 11:00:32;;;;;;;4.32;3.17;;;998.70;1024.00;;;;;;4893788;29;20035;-74
2021/06/18 11:03:15;;;;;;;4.97;3.33;;;998.80;998.40;;;;;;4867720;29;20296;-74
2021/06/18 11:06:02;;;;;;;4.65;3.47;;;998.60;1049.60;;;;;;4872528;29;20021;-74
2021/06/18 11:08:53;;;;;;;4.68;3.63;;;998.40;1075.20;;;;;;4869335;29;20567;-74
2021/06/18 11:11:34;;;;;;;4.78;3.55;;;973.60;1049.60;;;;;;4875053;29;20021;-74
2021/06/18 11:14:34;;;;;;;4.05;3.05;;;973.70;1024.00;;;;;;4871347;29;20432;-74
2021/06/18 11:17:44;;;;;;;4.18;3.33;;;973.20;1049.60;;;;;;4875823;29;20031;-74
2021/06/18 11:20:19;;;;;;;3.70;2.80;;;973.50;1049.60;;;;;;4873530;29;20037;-74
2021/06/18 11:26:27;;;;;;;4.40;3.38;;;973.20;1049.60;;;;;;4876086;29;20040;-73
2021/06/18 11:29:27;;;;;;;5.80;3.25;;;973.00;1049.60;;;;;;4882484;29;20813;-74
2021/06/18 11:31:59;;;;;;;3.95;2.80;;;947.30;1075.20;;;;;;4875273;29;20128;-73
2021/06/18 11:34:40;;;;;;;6.10;3.53;;;947.70;1075.20;;;;;;4881699;29;20048;-74
2021/06/18 11:37:10;;;;;;;8.10;2.97;;;947.90;1024.00;;;;;;4875882;29;20064;-73
2021/06/18 11:40:00;;;;;;;9.25;3.42;;;947.60;1049.60;;;;;;4873057;29;20454;-74
2021/06/18 11:42:36;;;;;;;4.55;3.55;;;947.70;1024.00;;;;;;4872728;29;20036;-74
2021/06/18 11:45:21;;;;;;;6.28;3.92;;;947.90;1024.00;;;;;;4878151;29;20059;-74
2021/06/18 11:48:02;;;;;;;4.07;3.35;;;947.80;1049.60;;;;;;4879606;29;20041;-74
2021/06/18 11:50:40;;;;;;;4.90;3.08;;;972.90;1049.60;;;;;;4882043;29;20398;-74
2021/06/18 11:53:10;;;;;;;4.03;2.75;;;998.90;1024.00;;;;;;4870185;29;20140;-74
2021/06/18 11:55:40;;;;;;;3.72;2.85;;;999.30;998.40;;;;;;4874918;29;20028;-74
2021/06/18 11:58:34;;;;;;;10.77;7.03;;;1024.20;947.20;;;;;;4879307;29;20028;-74
2021/06/18 12:01:21;;;;;;;5.40;3.33;;;1024.10;947.20;;;;;;4877556;29;20036;-74
2021/06/18 12:03:55;;;;;;;4.82;3.15;;;999.30;998.40;;;;;;4855273;29;20114;-74
2021/06/18 12:06:40;;;;;;;5.30;3.80;;;1024.10;998.40;;;;;;4849106;29;20041;-74
2021/06/18 12:09:32;;;;;;;11.13;7.82;;;999.00;1024.00;;;;;;4836784;29;20494;-74
2021/06/18 12:12:14;;;;;;;10.65;9.48;;;998.90;1049.60;;;;;;4861618;29;20817;-74
2021/06/18 12:14:44;;;;;;;5.07;3.70;;;999.20;1049.60;;;;;;4857464;29;20365;-74
2021/06/18 12:17:16;;;;;;;9.02;6.15;;;1024.00;1024.00;;;;;;4860924;29;20034;-74
2021/06/18 12:22:42;;;;;;;3.75;3.13;;;998.90;1049.60;;;;;;4858717;29;20032;-73
2021/06/18 12:25:13;;;;;;;4.82;3.95;;;998.40;1075.20;;;;;;4860575;29;20025;-73
2021/06/18 12:27:42;;;;;;;4.55;3.78;;;998.90;1075.20;;;;;;4843906;29;20029;-73
2021/06/18 12:30:34;;;;;;;5.45;3.28;;;999.30;1049.60;;;;;;4860272;29;20428;-73
2021/06/18 12:33:04;;;;;;;4.15;2.85;;;1024.30;1024.00;;;;;;4858981;29;20033;-80
2021/06/18 12:36:02;;;;;;;8.57;3.83;;;1049.60;972.80;;;;;;4858647;29;20113;-73
2021/06/18 12:38:45;;;;;;;4.53;3.25;;;1024.50;921.60;;;;;;4854427;29;20021;-73
2021/06/18 12:41:32;;;;;;;5.93;3.78;;;1049.70;972.80;;;;;;4858312;29;20086;-72
2021/06/18 12:44:05;;;;;;;4.93;3.75;;;1049.70;947.20;;;;;;4859102;29;20108;-73
2021/06/18 12:46:36;;;;;;;7.65;4.05;;;1049.90;921.60;;;;;;4855281;29;20026;-73
2021/06/18 12:49:17;;;;;;;5.07;2.65;;;1050.30;921.60;;;;;;4861053;29;20153;-72
2021/06/18 12:51:43;;;;;;;5.53;3.08;;;1075.40;896.00;;;;;;4856349;29;20085;-72
2021/06/18 12:54:14;;;;;;;4.18;2.95;;;1075.40;921.60;;;;;;4855535;29;20105;-72
2021/06/18 12:56:46;;;;;;;3.40;2.67;;;1076.00;870.40;;;;;;4853544;29;20037;-72
2021/06/18 12:59:38;;;;;;;5.57;3.97;;;1075.80;870.40;;;;;;4855558;29;20025;-72
2021/06/18 13:02:15;;;;;;;5.63;2.83;;;1075.70;921.60;;;;;;4859086;29;20056;-72
2021/06/18 13:04:47;;;;;;;3.67;3.15;;;1075.70;896.00;;;;;;4873646;29;20121;-73
2021/06/18 13:07:56;;;;;;;4.05;3.50;;;1075.80;921.60;;;;;;4872982;29;20394;-73
2021/06/18 13:10:22;;;;;;;5.75;4.20;;;1075.90;921.60;;;;;;4873320;29;20037;-73
2021/06/18 13:12:57;;;;;;;7.07;3.58;;;1075.40;947.20;;;;;;4872470;29;20044;-73
2021/06/18 13:15:38;;;;;;;;;;;1050.10;972.80;;;;;;4867836;29;20041;-73
2021/06/18 13:18:09;;;;;;;7.30;3.85;;;1050.10;947.20;;;;;;4895227;29;19927;-74
2021/06/18 13:20:47;;;;;;;3.80;3.30;;;1050.50;972.80;;;;;;4868493;29;20090;-73
2021/06/18 13:23:37;;;;;;;3.28;2.60;;;1075.30;947.20;;;;;;4865116;29;20040;-73
2021/06/18 13:26:18;;;;;;;3.63;3.05;;;1050.20;972.80;;;;;;4866608;29;20364;-73
2021/06/18 13:28:49;;;;;;;4.03;2.85;;;1075.30;921.60;;;;;;4871154;29;20041;-74
2021/06/18 13:31:37;;;;;;;7.22;3.00;;;1075.30;921.60;;;;;;4873314;29;20467;-74